createdAt,value
2023-03-20T00:01:39.294Z,37.80
2023-03-20T00:06:42.214Z,37.47
2023-03-20T00:11:49.230Z,37.83
2023-03-20T00:16:53.756Z,37.50
2023-03-20T00:21:57.602Z,37.25
2023-03-20T00:27:02.658Z,37.35
2023-03-20T00:32:09.535Z,37.42
2023-03-20T00:37:12.826Z,38.22
2023-03-20T00:42:22.604Z,37.42
2023-03-20T00:47:28.506Z,37.70
2023-03-20T00:52:31.505Z,37.78
2023-03-20T00:57:41.232Z,38.25
2023-03-20T01:02:45.792Z,37.60
2023-03-20T01:07:49.740Z,37.83
2023-03-20T01:12:52.696Z,38.05
2023-03-20T01:17:57.100Z,39.05
2023-03-20T01:23:00.024Z,37.58
2023-03-20T01:28:05.248Z,37.45
2023-03-20T01:33:15.450Z,37.53
2023-03-20T01:38:22.761Z,38.13
2023-03-20T01:43:29.120Z,37.65
2023-03-20T01:48:57.209Z,37.90
2023-03-20T01:54:06.039Z,38.90
2023-03-20T01:59:15.344Z,39.25
2023-03-20T02:04:23.948Z,37.33
2023-03-20T02:09:31.502Z,37.55
2023-03-20T02:14:37.778Z,37.75
2023-03-20T02:20:11.202Z,37.72
2023-03-20T02:25:43.471Z,38.20
2023-03-20T02:31:16.067Z,38.47
2023-03-20T02:36:49.516Z,38.58
2023-03-20T02:42:00.751Z,37.78
2023-03-20T02:47:08.572Z,38.80
2023-03-20T02:52:21.120Z,38.20
2023-03-20T02:57:35.266Z,38.35
2023-03-20T03:02:49.777Z,38.63
2023-03-20T03:07:57.317Z,38.72
2023-03-20T03:13:04.602Z,38.25
2023-03-20T03:18:12.719Z,38.20
2023-03-20T03:23:22.531Z,38.17
2023-03-20T03:28:30.912Z,38.25
2023-03-20T03:33:35.959Z,39.92
2023-03-20T03:38:45.936Z,38.08
2023-03-20T03:43:56.728Z,38.50
2023-03-20T03:49:00.520Z,38.13
2023-03-20T03:54:06.897Z,38.33
2023-03-20T03:59:17.580Z,38.00
2023-03-20T04:04:21.903Z,37.92
2023-03-20T04:09:25.939Z,37.90
2023-03-20T04:14:30.634Z,38.58
2023-03-20T04:19:33.781Z,37.97
2023-03-20T04:24:36.851Z,38.25
2023-03-20T04:29:41.432Z,37.72
2023-03-20T04:35:10.722Z,37.92
2023-03-20T04:40:28.480Z,38.10
2023-03-20T04:45:32.911Z,38.50
2023-03-20T04:50:36.161Z,38.47
2023-03-20T04:55:39.616Z,38.92
2023-03-20T05:00:45.315Z,39.53
2023-03-20T05:05:48.296Z,38.95
2023-03-20T05:10:51.853Z,38.90
2023-03-20T05:16:22.137Z,38.22
2023-03-20T05:21:47.557Z,38.85
2023-03-20T05:27:02.577Z,38.42
2023-03-20T05:32:23.875Z,43.47
2023-03-20T05:37:38.592Z,39.08
2023-03-20T05:42:47.556Z,39.58
2023-03-20T05:47:51.771Z,38.97
2023-03-20T05:53:02.686Z,38.92
2023-03-20T05:58:25.896Z,39.00
2023-03-20T06:03:41.744Z,39.08
2023-03-20T06:08:52.459Z,40.35
2023-03-20T06:13:55.808Z,38.60
2023-03-20T06:19:03.148Z,38.65
2023-03-20T06:24:06.728Z,38.92
2023-03-20T06:29:09.733Z,39.28
2023-03-20T06:34:14.841Z,38.88
2023-03-20T06:39:21.208Z,39.35
2023-03-20T06:44:25.041Z,38.63
2023-03-20T06:49:52.118Z,39.05
2023-03-20T06:54:57.908Z,38.78
2023-03-20T07:00:01.406Z,40.20
2023-03-20T07:05:08.208Z,43.20
2023-03-20T07:10:13.341Z,38.80
2023-03-20T07:15:22.177Z,39.42
2023-03-20T07:20:28.000Z,39.25
2023-03-20T07:25:41.862Z,38.90
2023-03-20T07:30:45.648Z,38.78
2023-03-20T07:35:55.010Z,39.33
2023-03-20T07:40:58.094Z,38.45
2023-03-20T07:46:03.426Z,38.50
2023-03-20T07:51:08.389Z,38.80
2023-03-20T07:56:11.573Z,39.10
2023-03-20T08:01:14.597Z,39.20
2023-03-20T08:06:18.852Z,39.17
2023-03-20T08:11:22.058Z,39.33
2023-03-20T08:16:25.304Z,41.78
2023-03-20T08:21:29.973Z,40.20
2023-03-20T08:26:32.904Z,39.25
2023-03-20T08:31:36.037Z,40.10
2023-03-20T08:36:40.945Z,39.92
2023-03-20T08:41:45.750Z,39.58
2023-03-20T08:46:48.663Z,43.92
2023-03-20T08:51:52.967Z,41.05
2023-03-20T08:56:56.442Z,40.00
2023-03-20T09:01:59.403Z,41.55
2023-03-20T09:07:04.024Z,39.97
2023-03-20T09:12:07.488Z,41.40
2023-03-20T09:17:10.363Z,42.45
2023-03-20T09:22:18.009Z,40.25
2023-03-20T09:27:21.586Z,40.33
2023-03-20T09:32:24.523Z,41.75
2023-03-20T09:37:29.162Z,39.33
2023-03-20T09:42:43.198Z,42.15
2023-03-20T09:47:54.713Z,40.47
2023-03-20T09:53:07.121Z,39.67
2023-03-20T09:58:18.207Z,39.72
2023-03-20T10:03:26.182Z,40.15
2023-03-20T10:08:34.592Z,40.05
2023-03-20T10:13:55.490Z,42.03
2023-03-20T10:19:06.965Z,43.67
2023-03-20T10:24:19.634Z,40.90
2023-03-20T10:29:34.116Z,40.22
2023-03-20T10:34:58.213Z,41.70
2023-03-20T10:40:21.795Z,41.00
2023-03-20T10:45:34.788Z,41.55
2023-03-20T10:50:44.253Z,41.25
2023-03-20T10:55:48.712Z,40.33
2023-03-20T11:00:52.723Z,40.15
2023-03-20T11:06:09.358Z,39.60
2023-03-20T11:11:14.112Z,40.33
2023-03-20T11:16:22.845Z,41.35
2023-03-20T11:21:28.321Z,40.72
2023-03-20T11:26:38.318Z,39.72
2023-03-20T11:31:42.540Z,41.65
2023-03-20T11:37:08.745Z,40.83
2023-03-20T11:42:26.075Z,41.47
2023-03-20T11:47:32.768Z,39.15
2023-03-20T11:52:38.145Z,41.22
2023-03-20T11:57:46.820Z,41.83
2023-03-20T12:02:50.646Z,43.78
2023-03-20T12:07:58.111Z,42.05
2023-03-20T12:13:07.777Z,41.33
2023-03-20T12:18:17.049Z,40.38
2023-03-20T12:23:30.170Z,39.35
2023-03-20T12:28:41.815Z,39.67
2023-03-20T12:33:51.894Z,39.45
2023-03-20T12:38:54.862Z,41.67
2023-03-20T12:44:20.884Z,42.20
2023-03-20T12:49:34.646Z,40.80
2023-03-20T12:54:57.557Z,39.78
2023-03-20T13:00:16.404Z,39.70
2023-03-20T13:05:28.181Z,40.35
2023-03-20T13:10:35.607Z,41.65
2023-03-20T13:15:58.565Z,39.75
2023-03-20T13:21:10.637Z,40.25
2023-03-20T13:26:23.792Z,41.42
2023-03-20T13:31:37.896Z,40.35
2023-03-20T13:36:55.009Z,45.03
2023-03-20T13:42:00.145Z,42.55
2023-03-20T13:47:11.627Z,40.45
2023-03-20T13:52:17.814Z,39.65
2023-03-20T13:57:46.085Z,39.92
2023-03-20T14:03:18.473Z,42.78
2023-03-20T14:08:33.378Z,41.17
2023-03-20T14:13:36.979Z,40.83
2023-03-20T14:18:42.967Z,39.95
2023-03-20T14:23:50.656Z,39.95
2023-03-20T14:28:54.717Z,40.40
2023-03-20T14:34:17.883Z,40.50
2023-03-20T14:39:28.718Z,41.42
2023-03-20T14:44:49.913Z,39.85
2023-03-20T14:49:58.534Z,39.45
2023-03-20T14:55:31.537Z,39.17
2023-03-20T15:00:47.019Z,40.17
2023-03-20T15:05:57.606Z,39.92
2023-03-20T15:11:07.083Z,40.20
2023-03-20T15:16:14.461Z,39.13
2023-03-20T15:21:20.979Z,41.50
2023-03-20T15:26:25.535Z,40.40
2023-03-20T15:31:30.850Z,39.65
2023-03-20T15:36:37.216Z,40.30
2023-03-20T15:41:40.642Z,39.42
2023-03-20T15:46:52.626Z,40.97
2023-03-20T15:51:59.755Z,40.10
2023-03-20T15:57:03.569Z,40.15
2023-03-20T16:02:06.985Z,39.45
2023-03-20T16:07:21.501Z,40.45
2023-03-20T16:12:24.439Z,40.05
2023-03-20T16:17:27.762Z,40.47
2023-03-20T16:22:34.015Z,39.80
2023-03-20T16:27:37.708Z,39.92
2023-03-20T16:32:42.626Z,39.88
2023-03-20T16:37:49.818Z,42.10
2023-03-20T16:42:54.906Z,42.92
2023-03-20T16:48:28.211Z,40.83
2023-03-20T16:53:41.952Z,41.40
2023-03-20T16:58:46.760Z,39.70
2023-03-20T17:03:53.344Z,39.97
2023-03-20T17:09:03.723Z,39.42
2023-03-20T17:14:06.870Z,38.97
2023-03-20T17:19:15.598Z,41.92
2023-03-20T17:24:20.120Z,40.15
2023-03-20T17:29:23.084Z,41.30
2023-03-20T17:34:26.061Z,40.90
2023-03-20T17:39:30.619Z,39.90
2023-03-20T17:44:33.537Z,39.78
2023-03-20T17:49:36.512Z,40.70
2023-03-20T17:54:40.845Z,39.38
2023-03-20T17:59:43.794Z,39.05
2023-03-20T18:04:47.070Z,39.42
2023-03-20T18:09:51.620Z,40.05
2023-03-20T18:14:54.679Z,39.40
2023-03-20T18:19:57.681Z,39.60
2023-03-20T18:25:02.051Z,38.60
2023-03-20T18:30:05.471Z,38.65
2023-03-20T18:35:10.885Z,39.00
2023-03-20T18:40:20.804Z,38.85
2023-03-20T18:45:28.205Z,40.58
2023-03-20T18:50:37.504Z,39.42
2023-03-20T18:55:42.218Z,40.45
2023-03-20T19:00:45.223Z,39.05
2023-03-20T19:05:52.142Z,38.83
2023-03-20T19:10:56.575Z,39.05
2023-03-20T19:16:04.053Z,39.78
2023-03-20T19:21:07.906Z,39.30
2023-03-20T19:26:16.534Z,38.95
2023-03-20T19:31:19.612Z,38.67
2023-03-20T19:36:26.698Z,39.53
2023-03-20T19:41:32.460Z,39.45
2023-03-20T19:46:40.042Z,38.75
2023-03-20T19:51:43.878Z,38.97
2023-03-20T19:56:48.140Z,39.30
2023-03-20T20:01:51.678Z,39.25
2023-03-20T20:06:55.786Z,42.55
2023-03-20T20:12:07.015Z,41.08
2023-03-20T20:17:10.142Z,39.92
2023-03-20T20:22:24.879Z,39.55
2023-03-20T20:27:31.437Z,38.90
2023-03-20T20:32:37.330Z,40.45
2023-03-20T20:38:27.126Z,40.53
2023-03-20T20:43:10.291Z,40.08
2023-03-20T20:48:13.805Z,39.55
2023-03-20T20:53:16.826Z,39.47
2023-03-20T20:58:21.089Z,39.33
2023-03-20T21:03:24.185Z,39.45
2023-03-20T21:08:27.108Z,39.15
2023-03-20T21:13:31.404Z,38.75
2023-03-20T21:18:34.507Z,39.28
2023-03-20T21:23:37.572Z,38.85
2023-03-20T21:28:42.285Z,38.67
2023-03-20T21:33:45.156Z,38.25
2023-03-20T21:39:06.779Z,39.67
2023-03-20T21:44:17.067Z,38.95
2023-03-20T21:50:19.323Z,38.85
2023-03-20T21:55:27.520Z,38.38
2023-03-20T22:33:16.798Z,38.38
2023-03-20T22:48:42.289Z,39.10
2023-03-20T22:53:45.198Z,38.20
2023-03-20T22:58:48.266Z,38.00
2023-03-20T23:03:52.519Z,38.35
2023-03-20T23:09:03.292Z,39.10
2023-03-20T23:14:20.569Z,38.85
2023-03-20T23:19:28.106Z,38.90
2023-03-20T23:24:32.813Z,38.85
2023-03-20T23:29:35.719Z,38.50
2023-03-20T23:34:40.399Z,38.33
2023-03-20T23:39:43.433Z,38.55
2023-03-20T23:44:55.348Z,38.33
2023-03-20T23:50:01.555Z,37.95
2023-03-20T23:55:05.389Z,38.70
